createdAt,value
2018-11-04T00:00:18.994Z,5.36
2018-11-04T00:01:28.858Z,5.43
2018-11-04T00:02:38.261Z,5.47
2018-11-04T00:03:48.208Z,5.43
2018-11-04T00:04:57.884Z,5.47
2018-11-04T00:06:07.821Z,5.43
2018-11-04T00:07:17.515Z,5.43
2018-11-04T00:08:27.199Z,5.51
2018-11-04T00:09:36.643Z,5.49
2018-11-04T00:10:46.368Z,5.56
2018-11-04T00:11:56.338Z,5.56
2018-11-04T00:13:06.369Z,5.58
2018-11-04T00:14:16.318Z,5.61
2018-11-04T00:15:26.016Z,5.52
2018-11-04T00:16:35.445Z,5.59
2018-11-04T00:17:45.130Z,5.58
2018-11-04T00:18:54.819Z,5.62
2018-11-04T00:20:04.508Z,5.67
2018-11-04T00:21:13.979Z,5.69
2018-11-04T00:22:23.908Z,5.72
2018-11-04T00:23:33.850Z,5.69
2018-11-04T00:24:43.533Z,5.67
2018-11-04T00:25:53.235Z,5.69
2018-11-04T00:27:03.283Z,5.65
2018-11-04T00:28:12.401Z,5.65
2018-11-04T00:29:22.370Z,5.65
2018-11-04T00:30:32.333Z,5.69
2018-11-04T00:31:42.287Z,5.73
2018-11-04T00:32:52.237Z,5.73
2018-11-04T00:34:01.436Z,5.72
2018-11-04T00:35:11.124Z,5.64
2018-11-04T00:36:21.096Z,5.62
2018-11-04T00:37:31.062Z,5.59
2018-11-04T00:38:40.751Z,5.73
2018-11-04T00:39:50.636Z,5.62
2018-11-04T00:41:00.570Z,5.72
2018-11-04T00:42:10.520Z,5.7
2018-11-04T00:43:20.215Z,5.73
2018-11-04T00:44:29.899Z,5.7
2018-11-04T00:45:40.091Z,5.72
2018-11-04T00:46:49.594Z,5.76
2018-11-04T00:47:59.533Z,5.7
2018-11-04T00:49:09.509Z,5.67
2018-11-04T00:50:19.464Z,5.69
2018-11-04T00:51:29.166Z,5.69
2018-11-04T00:52:39.114Z,5.62
2018-11-04T00:53:49.065Z,5.73
2018-11-04T00:54:58.997Z,5.76
2018-11-04T00:56:08.942Z,5.76
2018-11-04T00:57:18.371Z,5.73
2018-11-04T00:58:28.315Z,5.77
2018-11-04T00:59:38.255Z,5.8
2018-11-04T01:00:48.201Z,5.8
2018-11-04T01:01:57.887Z,5.87
2018-11-04T01:03:07.623Z,5.91
2018-11-04T01:04:17.569Z,5.95
2018-11-04T01:05:27.272Z,5.95
2018-11-04T01:06:36.960Z,5.92
2018-11-04T01:07:46.928Z,5.98
2018-11-04T01:08:56.989Z,5.97
2018-11-04T01:10:06.894Z,5.95
2018-11-04T01:11:16.070Z,5.98
2018-11-04T01:12:26.001Z,5.97
2018-11-04T01:13:35.423Z,6.09
2018-11-04T01:14:45.383Z,5.99
2018-11-04T01:15:55.077Z,6.07
2018-11-04T01:17:04.517Z,6.02
2018-11-04T01:18:13.947Z,5.99
2018-11-04T01:19:23.902Z,6.07
2018-11-04T01:20:33.853Z,6.09
2018-11-04T01:21:43.815Z,6.06
2018-11-04T01:22:53.504Z,6.02
2018-11-04T01:24:03.186Z,6.09
2018-11-04T01:25:12.874Z,6.12
2018-11-04T01:26:22.835Z,6.15
2018-11-04T01:27:32.526Z,6.2
2018-11-04T01:28:41.990Z,6.13
2018-11-04T01:29:51.684Z,6.19
2018-11-04T01:31:01.377Z,6.28
2018-11-04T01:32:11.331Z,6.29
2018-11-04T01:33:20.764Z,6.32
2018-11-04T01:34:30.711Z,6.29
2018-11-04T01:35:40.410Z,6.25
2018-11-04T01:36:49.842Z,6.28
2018-11-04T01:37:59.267Z,6.35
2018-11-04T01:39:08.706Z,6.34
2018-11-04T01:40:18.659Z,6.32
2018-11-04T01:41:28.388Z,6.35
2018-11-04T01:42:38.343Z,6.31
2018-11-04T01:43:48.034Z,6.38
2018-11-04T01:44:57.730Z,6.35
2018-11-04T01:46:07.687Z,6.38
2018-11-04T01:47:17.638Z,6.36
2018-11-04T01:48:27.076Z,6.5
2018-11-04T01:49:36.517Z,6.53
2018-11-04T01:50:45.704Z,6.47
2018-11-04T01:51:55.124Z,6.6
2018-11-04T01:53:05.067Z,6.57
2018-11-04T01:54:15.007Z,6.59
2018-11-04T01:55:24.939Z,6.56
2018-11-04T01:56:34.889Z,6.62
2018-11-04T01:57:44.586Z,6.56
2018-11-04T01:58:54.276Z,6.56
2018-11-04T02:00:04.010Z,6.56
2018-11-04T02:01:13.976Z,6.72
2018-11-04T02:02:23.934Z,6.7
2018-11-04T02:03:33.610Z,6.67
2018-11-04T02:04:43.582Z,6.7
2018-11-04T02:05:53.006Z,6.8
2018-11-04T02:07:02.950Z,6.86
2018-11-04T02:08:12.638Z,6.89
2018-11-04T02:09:22.071Z,6.86
2018-11-04T02:10:31.757Z,6.86
2018-11-04T02:11:41.455Z,6.83
2018-11-04T02:12:51.399Z,6.87
2018-11-04T02:14:00.812Z,6.93
2018-11-04T02:15:10.742Z,6.9
2018-11-04T02:16:20.702Z,6.95
2018-11-04T02:17:30.401Z,6.95
2018-11-04T02:18:40.339Z,7.04
2018-11-04T02:19:50.035Z,6.95
2018-11-04T02:20:59.720Z,7.05
2018-11-04T02:22:09.674Z,7.04
2018-11-04T02:23:19.647Z,7.1
2018-11-04T02:24:29.593Z,7.15
2018-11-04T02:25:39.544Z,7.14
2018-11-04T02:26:49.236Z,7.18
2018-11-04T02:27:59.177Z,7.15
2018-11-04T02:29:08.879Z,7.23
2018-11-04T02:30:18.607Z,7.18
2018-11-04T02:31:28.313Z,7.19
2018-11-04T02:32:37.768Z,7.32
2018-11-04T02:33:47.478Z,7.36
2018-11-04T02:34:57.430Z,7.23
2018-11-04T02:36:07.374Z,7.31
2018-11-04T02:37:17.320Z,7.25
2018-11-04T02:38:27.009Z,7.39
2018-11-04T02:39:36.956Z,7.32
2018-11-04T02:40:46.926Z,7.37
2018-11-04T02:41:56.636Z,7.37
2018-11-04T02:43:06.580Z,7.32
2018-11-04T02:44:16.531Z,7.41
2018-11-04T02:45:26.213Z,7.37
2018-11-04T02:46:35.653Z,7.39
2018-11-04T02:47:45.472Z,7.37
2018-11-04T02:48:54.895Z,7.44
2018-11-04T02:50:04.592Z,7.44
2018-11-04T02:51:14.286Z,7.46
2018-11-04T02:52:23.976Z,7.51
2018-11-04T02:53:33.933Z,7.44
2018-11-04T02:54:43.623Z,7.44
2018-11-04T02:55:53.127Z,7.47
2018-11-04T02:57:02.829Z,7.4
2018-11-04T02:58:12.530Z,7.51
2018-11-04T02:59:22.488Z,7.55
2018-11-04T03:00:32.435Z,7.51
2018-11-04T03:01:42.246Z,7.5
2018-11-04T03:02:51.727Z,7.51
2018-11-04T03:04:01.661Z,7.59
2018-11-04T03:05:10.849Z,7.56
2018-11-04T03:06:20.787Z,7.61
2018-11-04T03:07:30.498Z,7.59
2018-11-04T03:08:40.444Z,7.61
2018-11-04T03:09:50.142Z,7.59
2018-11-04T03:10:59.572Z,7.66
2018-11-04T03:12:09.022Z,7.64
2018-11-04T03:13:18.960Z,7.66
2018-11-04T03:14:28.915Z,7.59
2018-11-04T03:15:38.339Z,7.64
2018-11-04T03:16:48.283Z,7.8
2018-11-04T03:17:58.236Z,7.72
2018-11-04T03:19:08.205Z,7.7
2018-11-04T03:20:17.121Z,7.77
2018-11-04T03:21:26.819Z,7.81
2018-11-04T03:22:36.504Z,7.69
2018-11-04T03:23:46.202Z,7.74
2018-11-04T03:24:56.168Z,7.81
2018-11-04T03:26:06.115Z,7.74
2018-11-04T03:27:16.053Z,7.72
2018-11-04T03:28:25.224Z,7.74
2018-11-04T03:29:34.651Z,7.8
2018-11-04T03:30:44.356Z,7.9
2018-11-04T03:31:54.073Z,7.77
2018-11-04T03:33:04.023Z,7.81
2018-11-04T03:34:13.458Z,7.9
2018-11-04T03:35:23.150Z,7.85
2018-11-04T03:36:33.098Z,7.83
2018-11-04T03:37:42.538Z,7.9
2018-11-04T03:38:52.496Z,7.85
2018-11-04T03:40:02.206Z,7.95
2018-11-04T03:41:11.637Z,7.98
2018-11-04T03:42:21.575Z,7.88
2018-11-04T03:43:31.003Z,7.99
2018-11-04T03:44:40.973Z,7.85
2018-11-04T03:45:50.923Z,8.01
2018-11-04T03:47:00.614Z,8.03
2018-11-04T03:48:10.564Z,8.02
2018-11-04T03:49:20.503Z,8.05
2018-11-04T03:50:29.948Z,8.14
2018-11-04T03:51:39.898Z,8.03
2018-11-04T03:52:49.858Z,8.16
2018-11-04T03:53:59.819Z,8.08
2018-11-04T03:55:09.768Z,8.14
2018-11-04T03:56:19.733Z,8.16
2018-11-04T03:57:29.472Z,8.16
2018-11-04T03:58:38.919Z,8.13
2018-11-04T03:59:48.359Z,8.2
2018-11-04T04:00:58.049Z,8.23
2018-11-04T04:02:07.999Z,8.27
2018-11-04T04:03:17.435Z,8.23
2018-11-04T04:04:27.392Z,8.32
2018-11-04T04:05:36.910Z,8.35
2018-11-04T04:06:46.590Z,8.36
2018-11-04T04:07:56.551Z,8.34
2018-11-04T04:09:06.257Z,8.44
2018-11-04T04:10:15.960Z,8.36
2018-11-04T04:11:25.668Z,8.41
2018-11-04T04:12:35.359Z,8.52
2018-11-04T04:13:45.036Z,8.35
2018-11-04T04:14:54.203Z,8.53
2018-11-04T04:16:03.879Z,8.46
2018-11-04T04:17:13.590Z,8.52
2018-11-04T04:18:23.544Z,8.46
2018-11-04T04:19:33.505Z,8.45
2018-11-04T04:20:43.459Z,8.59
2018-11-04T04:21:53.179Z,8.6
2018-11-04T04:23:02.890Z,8.61
2018-11-04T04:24:12.566Z,8.61
2018-11-04T04:25:22.256Z,8.45
2018-11-04T04:26:31.676Z,8.56
2018-11-04T04:27:41.632Z,8.66
2018-11-04T04:28:51.568Z,8.59
2018-11-04T04:30:01.278Z,8.63
2018-11-04T04:31:11.233Z,8.6
2018-11-04T04:32:20.670Z,8.54
2018-11-04T04:33:30.619Z,8.71
2018-11-04T04:34:40.576Z,8.69
2018-11-04T04:35:49.760Z,8.64
2018-11-04T04:36:59.697Z,8.59
2018-11-04T04:38:09.661Z,8.72
2018-11-04T04:39:19.357Z,8.69
2018-11-04T04:40:28.545Z,8.72
2018-11-04T04:41:38.225Z,8.68
2018-11-04T04:42:47.939Z,8.66
2018-11-04T04:43:57.637Z,8.64
2018-11-04T04:45:07.068Z,8.66
2018-11-04T04:46:16.751Z,8.69
2018-11-04T04:47:26.738Z,8.75
2018-11-04T04:48:36.725Z,8.63
2018-11-04T04:49:46.672Z,8.66
2018-11-04T04:50:56.628Z,8.74
2018-11-04T04:52:06.618Z,8.72
2018-11-04T04:53:16.039Z,8.71
2018-11-04T04:54:25.998Z,8.71
2018-11-04T04:55:35.950Z,8.71
2018-11-04T04:56:45.896Z,8.64
2018-11-04T04:57:55.837Z,8.74
2018-11-04T04:59:05.791Z,8.75
2018-11-04T05:00:15.735Z,8.77
2018-11-04T05:01:25.170Z,8.77
2018-11-04T05:02:35.116Z,8.77
2018-11-04T05:03:45.074Z,8.79
2018-11-04T05:04:54.770Z,8.81
2018-11-04T05:06:04.711Z,8.81
2018-11-04T05:07:14.141Z,8.78
2018-11-04T05:08:24.087Z,8.72
2018-11-04T05:09:34.038Z,8.78
2018-11-04T05:10:43.719Z,8.77
2018-11-04T05:11:53.431Z,8.84
2018-11-04T05:13:02.847Z,8.79
2018-11-04T05:14:12.523Z,8.84
2018-11-04T05:15:22.227Z,8.84
2018-11-04T05:16:31.403Z,8.86
2018-11-04T05:17:41.443Z,8.92
2018-11-04T05:18:51.132Z,8.96
2018-11-04T05:20:01.085Z,9.02
2018-11-04T05:21:11.056Z,8.84
2018-11-04T05:22:20.736Z,8.93
2018-11-04T05:23:30.669Z,8.89
2018-11-04T05:24:40.375Z,8.97
2018-11-04T05:25:50.085Z,8.99
2018-11-04T05:26:59.274Z,8.97
2018-11-04T05:28:08.984Z,8.97
2018-11-04T05:29:18.407Z,8.95
2018-11-04T05:30:27.576Z,9.02
2018-11-04T05:31:37.516Z,8.99
2018-11-04T05:32:47.204Z,9.03
2018-11-04T05:33:56.904Z,9.11
2018-11-04T05:35:06.860Z,9.02
2018-11-04T05:36:16.029Z,9.12
2018-11-04T05:37:25.456Z,9.09
2018-11-04T05:38:35.554Z,9.09
2018-11-04T05:39:44.977Z,9.09
2018-11-04T05:40:54.671Z,9.16
2018-11-04T05:42:04.377Z,9.16
2018-11-04T05:43:14.333Z,9.05
2018-11-04T05:44:24.273Z,9.19
2018-11-04T05:45:34.237Z,9.22
2018-11-04T05:46:43.649Z,9.19
2018-11-04T05:47:53.614Z,9.16
2018-11-04T05:49:02.792Z,9.11
2018-11-04T05:50:12.494Z,9.13
2018-11-04T05:51:21.953Z,9.15
2018-11-04T05:52:31.975Z,9.21
2018-11-04T05:53:41.909Z,9.19
2018-11-04T05:54:51.868Z,9.19
2018-11-04T05:56:01.317Z,9.21
2018-11-04T05:57:11.006Z,9.21
2018-11-04T05:58:20.959Z,9.21
2018-11-04T05:59:30.636Z,9.19
2018-11-04T06:00:40.582Z,9.24
2018-11-04T06:01:50.281Z,9.22
2018-11-04T06:03:00.241Z,9.19
2018-11-04T06:04:09.929Z,9.19
2018-11-04T06:05:19.379Z,9.16
2018-11-04T06:06:29.080Z,9.16
2018-11-04T06:07:39.015Z,9.18
2018-11-04T06:08:48.969Z,9.24
2018-11-04T06:09:58.660Z,9.15
2018-11-04T06:11:08.602Z,9.16
2018-11-04T06:12:18.298Z,9.15
2018-11-04T06:13:27.477Z,9.13
2018-11-04T06:14:37.445Z,9.12
2018-11-04T06:15:47.381Z,9.18
2018-11-04T06:16:57.076Z,9.09
2018-11-04T06:18:06.782Z,9.16
2018-11-04T06:19:16.503Z,9.09
2018-11-04T06:20:26.582Z,9.13
2018-11-04T06:21:36.293Z,9.05
2018-11-04T06:22:45.735Z,9.18
2018-11-04T06:23:55.678Z,9.13
2018-11-04T06:25:05.620Z,9.12
2018-11-04T06:26:15.588Z,9.16
2018-11-04T06:27:25.011Z,9.19
2018-11-04T06:28:34.962Z,9.21
2018-11-04T06:29:44.647Z,9.21
2018-11-04T06:30:54.597Z,9.19
2018-11-04T06:32:04.544Z,9.22
2018-11-04T06:33:14.233Z,9.18
2018-11-04T06:34:24.047Z,9.22
2018-11-04T06:35:33.883Z,9.21
2018-11-04T06:36:43.584Z,9.29
2018-11-04T06:37:53.523Z,9.24
2018-11-04T06:39:03.215Z,9.24
2018-11-04T06:40:12.906Z,9.27
2018-11-04T06:41:22.333Z,9.21
2018-11-04T06:42:31.773Z,9.24
2018-11-04T06:43:41.201Z,9.39
2018-11-04T06:44:50.899Z,9.39
2018-11-04T06:46:00.335Z,9.37
2018-11-04T06:47:10.863Z,9.4
2018-11-04T06:48:20.662Z,9.47
2018-11-04T06:49:30.389Z,9.44
2018-11-04T06:50:40.073Z,9.44
2018-11-04T06:51:49.509Z,9.4
2018-11-04T06:52:59.459Z,9.49
2018-11-04T06:54:09.398Z,9.49
2018-11-04T06:55:19.343Z,9.44
2018-11-04T06:56:29.303Z,9.45
2018-11-04T06:57:39.005Z,9.4
2018-11-04T06:58:48.713Z,9.45
2018-11-04T06:59:58.843Z,9.44
2018-11-04T07:01:09.251Z,9.42
2018-11-04T07:02:18.937Z,9.48
2018-11-04T07:03:28.753Z,9.47
2018-11-04T07:04:38.474Z,9.45
2018-11-04T07:05:48.180Z,9.44
2018-11-04T07:06:57.877Z,9.44
2018-11-04T07:08:07.569Z,9.4
2018-11-04T07:09:17.269Z,9.47
2018-11-04T07:10:26.709Z,9.44
2018-11-04T07:11:36.407Z,9.44
2018-11-04T07:12:46.114Z,9.47
2018-11-04T07:13:56.059Z,9.44
2018-11-04T07:15:05.741Z,9.45
2018-11-04T07:16:15.430Z,9.42
2018-11-04T07:17:24.863Z,9.52
2018-11-04T07:18:34.809Z,9.44
2018-11-04T07:19:44.606Z,9.44
2018-11-04T07:20:54.473Z,9.48
2018-11-04T07:22:04.415Z,9.56
2018-11-04T07:23:13.850Z,9.54
2018-11-04T07:24:23.802Z,9.49
2018-11-04T07:25:33.343Z,9.63
2018-11-04T07:26:43.007Z,9.58
2018-11-04T07:27:53.486Z,9.58
2018-11-04T07:29:03.456Z,9.55
2018-11-04T07:30:13.400Z,9.55
2018-11-04T07:31:22.844Z,9.62
2018-11-04T07:32:32.533Z,9.69
2018-11-04T07:33:42.226Z,9.7
2018-11-04T07:34:51.917Z,9.76
2018-11-04T07:36:01.852Z,9.67
2018-11-04T07:37:11.540Z,9.8
2018-11-04T07:38:20.979Z,9.73
2018-11-04T07:39:30.660Z,9.85
2018-11-04T07:40:40.107Z,9.76
2018-11-04T07:41:49.285Z,9.85
2018-11-04T07:42:58.723Z,9.82
2018-11-04T07:44:08.471Z,9.73
2018-11-04T07:45:18.600Z,9.72
2018-11-04T07:46:27.816Z,9.77
2018-11-04T07:47:37.765Z,9.72
2018-11-04T07:48:47.472Z,9.74
2018-11-04T07:49:57.159Z,9.85
2018-11-04T07:51:06.851Z,9.76
2018-11-04T07:52:16.538Z,9.85
2018-11-04T07:53:26.509Z,9.81
2018-11-04T07:54:36.211Z,9.88
2018-11-04T07:55:46.270Z,9.82
2018-11-04T07:56:56.507Z,9.85
2018-11-04T07:58:06.431Z,9.9
2018-11-04T07:59:16.382Z,9.88
2018-11-04T08:00:25.818Z,9.88
2018-11-04T08:01:35.780Z,9.97
2018-11-04T08:02:45.203Z,9.9
2018-11-04T08:03:55.281Z,9.97
2018-11-04T08:05:05.084Z,9.99
2018-11-04T08:06:15.046Z,9.99
2018-11-04T08:07:24.743Z,9.99
2018-11-04T08:08:34.459Z,10.07
2018-11-04T08:09:44.477Z,10.05
2018-11-04T08:10:54.176Z,10.05
2018-11-04T08:12:04.187Z,10.05
2018-11-04T08:13:13.879Z,10.05
2018-11-04T08:14:23.335Z,10.1
2018-11-04T08:15:33.287Z,10.06
2018-11-04T08:16:43.027Z,10.09
2018-11-04T08:17:52.470Z,10.13
2018-11-04T08:19:01.900Z,10.06
2018-11-04T08:20:11.600Z,10.07
2018-11-04T08:21:21.502Z,10.13
2018-11-04T08:22:31.444Z,10.09
2018-11-04T08:23:41.152Z,10.13
2018-11-04T08:24:50.856Z,10.12
2018-11-04T08:26:00.314Z,10.09
2018-11-04T08:27:09.741Z,10.1
2018-11-04T08:28:19.700Z,10.09
2018-11-04T08:29:28.874Z,10.03
2018-11-04T08:30:38.595Z,10.2
2018-11-04T08:31:48.551Z,10.28
2018-11-04T08:32:58.504Z,10.23
2018-11-04T08:34:08.460Z,10.33
2018-11-04T08:35:18.404Z,10.24
2018-11-04T08:36:28.101Z,10.31
2018-11-04T08:37:37.550Z,10.24
2018-11-04T08:38:47.241Z,10.24
2018-11-04T08:39:57.374Z,10.2
2018-11-04T08:41:07.384Z,10.23
2018-11-04T08:42:17.086Z,10.33
2018-11-04T08:43:27.059Z,10.34
2018-11-04T08:44:36.740Z,10.36
2018-11-04T08:45:46.400Z,10.38
2018-11-04T08:46:56.744Z,10.34
2018-11-04T08:48:06.490Z,10.41
2018-11-04T08:49:16.448Z,10.38
2018-11-04T08:50:26.393Z,10.34
2018-11-04T08:51:36.350Z,10.39
2018-11-04T08:52:46.751Z,10.36
2018-11-04T08:53:56.709Z,10.45
2018-11-04T08:55:06.668Z,10.45
2018-11-04T08:56:16.624Z,10.38
2018-11-04T08:57:26.077Z,10.45
2018-11-04T08:58:35.753Z,10.45
2018-11-04T08:59:45.696Z,10.53
2018-11-04T09:00:55.418Z,10.46
2018-11-04T09:02:05.372Z,10.53
2018-11-04T09:03:15.323Z,10.53
2018-11-04T09:04:25.114Z,10.46
2018-11-04T09:05:34.815Z,10.46
2018-11-04T09:06:44.912Z,10.53
2018-11-04T09:07:54.611Z,10.49
2018-11-04T09:09:04.366Z,10.57
2018-11-04T09:10:14.311Z,10.58
2018-11-04T09:11:23.755Z,10.58
2018-11-04T09:12:33.727Z,10.58
2018-11-04T09:13:43.674Z,10.57
2018-11-04T09:14:53.374Z,10.58
2018-11-04T09:16:03.315Z,10.62
2018-11-04T09:17:12.758Z,10.67
2018-11-04T09:18:22.199Z,10.65
2018-11-04T09:19:31.914Z,10.65
2018-11-04T09:20:41.878Z,10.69
2018-11-04T09:21:52.106Z,10.69
2018-11-04T09:23:02.780Z,10.69
2018-11-04T09:24:12.755Z,10.65
2018-11-04T09:25:22.467Z,10.69
2018-11-04T09:26:32.417Z,10.69
2018-11-04T09:27:42.111Z,10.71
2018-11-04T09:28:52.061Z,10.69
2018-11-04T09:30:01.516Z,10.68
2018-11-04T09:31:11.232Z,10.67
2018-11-04T09:32:20.670Z,10.67
2018-11-04T09:33:30.353Z,10.62
2018-11-04T09:34:40.606Z,10.62
2018-11-04T09:35:51.551Z,10.62
2018-11-04T09:37:01.957Z,10.69
2018-11-04T09:38:11.929Z,10.82
2018-11-04T09:39:21.904Z,10.76
2018-11-04T09:40:31.603Z,10.69
2018-11-04T09:41:41.300Z,10.83
2018-11-04T09:42:51.255Z,10.8
2018-11-04T09:44:00.700Z,10.87
2018-11-04T09:45:10.394Z,10.84
2018-11-04T09:46:20.094Z,10.8
2018-11-04T09:47:29.806Z,10.79
2018-11-04T09:48:39.790Z,10.77
2018-11-04T09:49:49.874Z,10.77
2018-11-04T09:50:59.954Z,10.75
2018-11-04T09:52:09.390Z,10.84
2018-11-04T09:53:19.353Z,10.79
2018-11-04T09:54:29.344Z,10.89
2018-11-04T09:55:39.031Z,10.8
2018-11-04T09:56:48.810Z,10.84
2018-11-04T09:57:58.321Z,10.84
2018-11-04T09:59:08.272Z,10.83
2018-11-04T10:00:18.247Z,10.89
2018-11-04T10:01:28.207Z,10.9
2018-11-04T10:02:37.652Z,10.97
2018-11-04T10:03:46.827Z,10.95
2018-11-04T10:04:56.788Z,10.92
2018-11-04T10:06:06.496Z,10.98
2018-11-04T10:07:16.500Z,11.04
2018-11-04T10:08:26.366Z,10.92
2018-11-04T10:09:36.311Z,11
2018-11-04T10:10:45.994Z,10.97
2018-11-04T10:11:55.697Z,10.98
2018-11-04T10:13:05.459Z,11
2018-11-04T10:14:15.545Z,10.84
2018-11-04T10:15:25.260Z,11.01
2018-11-04T10:16:34.960Z,10.89
2018-11-04T10:17:44.917Z,11.04
2018-11-04T10:18:55.393Z,10.98
2018-11-04T10:20:07.467Z,11.04
2018-11-04T10:21:17.794Z,11.07
2018-11-04T10:22:27.511Z,11.04
2018-11-04T10:23:37.466Z,11.02
2018-11-04T10:24:47.419Z,11.1
2018-11-04T10:25:57.370Z,11.13
2018-11-04T10:27:07.084Z,11.1
2018-11-04T10:28:17.045Z,11.13
2018-11-04T10:29:26.763Z,11.1
2018-11-04T10:30:36.721Z,11.13
2018-11-04T10:31:46.163Z,11.2
2018-11-04T10:32:56.102Z,11.19
2018-11-04T10:34:06.069Z,11.13
2018-11-04T10:35:15.745Z,11.23
2018-11-04T10:36:25.696Z,11.25
2018-11-04T10:37:35.663Z,11.3
2018-11-04T10:38:45.383Z,11.31
2018-11-04T10:39:54.821Z,11.3
2018-11-04T10:41:04.004Z,11.25
2018-11-04T10:42:14.230Z,11.27
2018-11-04T10:43:24.385Z,11.3
2018-11-04T10:44:33.840Z,11.27
2018-11-04T10:45:43.802Z,11.26
2018-11-04T10:46:53.766Z,11.2
2018-11-04T10:48:03.228Z,11.22
2018-11-04T10:49:13.054Z,11.3
2018-11-04T10:50:22.614Z,11.15
2018-11-04T10:51:32.593Z,11.25
2018-11-04T10:52:42.037Z,11.25
2018-11-04T10:53:51.476Z,11.25
2018-11-04T10:55:01.179Z,11.22
2018-11-04T10:56:11.165Z,11.19
2018-11-04T10:57:20.338Z,11.23
2018-11-04T10:58:30.033Z,11.23
2018-11-04T10:59:39.735Z,11.25
2018-11-04T11:00:49.431Z,11.25
2018-11-04T11:01:59.379Z,11.3
2018-11-04T11:03:08.837Z,11.26
2018-11-04T11:04:18.274Z,11.23
2018-11-04T11:05:28.036Z,11.23
2018-11-04T11:06:37.735Z,11.27
2018-11-04T11:07:47.437Z,11.26
2018-11-04T11:08:57.412Z,11.26
2018-11-04T11:10:07.118Z,11.31
2018-11-04T11:11:16.840Z,11.3
2018-11-04T11:12:26.268Z,11.3
2018-11-04T11:13:36.216Z,11.3
2018-11-04T11:14:45.952Z,11.38
2018-11-04T11:15:55.933Z,11.31
2018-11-04T11:17:05.358Z,11.31
2018-11-04T11:18:15.305Z,11.33
2018-11-04T11:19:24.747Z,11.38
2018-11-04T11:20:33.936Z,11.25
2018-11-04T11:21:43.876Z,11.35
2018-11-04T11:22:53.853Z,11.4
2018-11-04T11:24:04.397Z,11.43
2018-11-04T11:25:13.827Z,11.44
2018-11-04T11:26:23.820Z,11.43
2018-11-04T11:27:33.276Z,11.44
2018-11-04T11:28:42.461Z,11.48
2018-11-04T11:29:52.477Z,11.44
2018-11-04T11:31:02.202Z,11.45
2018-11-04T11:32:11.906Z,11.48
2018-11-04T11:33:21.603Z,11.41
2018-11-04T11:34:31.327Z,11.41
2018-11-04T11:35:40.760Z,11.41
2018-11-04T11:36:50.723Z,11.48
2018-11-04T11:38:01.251Z,11.49
2018-11-04T11:39:11.005Z,11.43
2018-11-04T11:40:20.776Z,11.49
2018-11-04T11:41:30.730Z,11.51
2018-11-04T11:42:40.442Z,11.51
2018-11-04T11:43:50.137Z,11.52
2018-11-04T11:45:00.582Z,11.52
2018-11-04T11:46:10.118Z,11.52
2018-11-04T11:47:20.068Z,11.53
2018-11-04T11:48:29.503Z,11.45
2018-11-04T11:49:39.199Z,11.45
2018-11-04T11:50:49.150Z,11.52
2018-11-04T11:51:58.857Z,11.48
2018-11-04T11:53:08.824Z,11.51
2018-11-04T11:54:18.787Z,11.55
2018-11-04T11:55:28.503Z,11.65
2018-11-04T11:56:38.461Z,11.58
2018-11-04T11:57:48.436Z,11.59
2018-11-04T11:58:58.149Z,11.58
2018-11-04T12:00:07.602Z,11.6
2018-11-04T12:01:17.576Z,11.55
2018-11-04T12:02:27.936Z,11.55
2018-11-04T12:03:37.654Z,11.63
2018-11-04T12:04:47.609Z,11.63
2018-11-04T12:05:57.337Z,11.67
2018-11-04T12:07:07.113Z,11.7
2018-11-04T12:08:16.534Z,11.65
2018-11-04T12:09:26.510Z,11.73
2018-11-04T12:10:36.472Z,11.6
2018-11-04T12:11:45.916Z,11.63
2018-11-04T12:12:55.899Z,11.63
2018-11-04T12:14:05.859Z,11.73
2018-11-04T12:15:15.824Z,11.65
2018-11-04T12:16:25.787Z,11.77
2018-11-04T12:17:35.323Z,11.71
2018-11-04T12:18:45.022Z,11.73
2018-11-04T12:19:54.987Z,11.74
2018-11-04T12:21:04.967Z,11.81
2018-11-04T12:22:14.932Z,11.81
2018-11-04T12:23:24.616Z,11.74
2018-11-04T12:24:34.105Z,11.77
2018-11-04T12:25:44.062Z,11.77
2018-11-04T12:26:54.006Z,11.91
2018-11-04T12:28:03.513Z,11.93
2018-11-04T12:29:13.460Z,11.95
2018-11-04T12:30:23.141Z,11.89
2018-11-04T12:31:32.752Z,11.99
2018-11-04T12:32:42.706Z,11.99
2018-11-04T12:33:52.410Z,11.93
2018-11-04T12:35:02.310Z,11.91
2018-11-04T12:36:12.388Z,12
2018-11-04T12:37:22.349Z,11.89
2018-11-04T12:38:32.300Z,11.96
2018-11-04T12:39:41.749Z,11.91
2018-11-04T12:40:51.455Z,12.02
2018-11-04T12:42:01.461Z,11.99
2018-11-04T12:43:11.165Z,12.05
2018-11-04T12:44:20.619Z,12.08
2018-11-04T12:45:30.635Z,12.07
2018-11-04T12:46:40.125Z,12.03
2018-11-04T12:47:49.830Z,12
2018-11-04T12:48:59.516Z,11.97
2018-11-04T12:50:09.229Z,11.99
2018-11-04T12:51:18.927Z,11.95
2018-11-04T12:52:28.806Z,11.96
2018-11-04T12:53:38.505Z,11.95
2018-11-04T12:54:48.208Z,12.03
2018-11-04T12:55:57.923Z,11.99
2018-11-04T12:57:07.362Z,12.07
2018-11-04T12:58:16.800Z,11.89
2018-11-04T12:59:26.246Z,12.02
2018-11-04T13:00:36.236Z,11.95
2018-11-04T13:01:45.741Z,11.8
2018-11-04T13:02:55.271Z,11.81
2018-11-04T13:04:04.991Z,11.8
2018-11-04T13:05:14.689Z,11.74
2018-11-04T13:06:24.638Z,11.73
2018-11-04T13:07:34.075Z,11.65
2018-11-04T13:08:44.038Z,11.58
2018-11-04T13:09:52.958Z,11.73
2018-11-04T13:11:02.998Z,11.62
2018-11-04T13:12:12.424Z,11.63
2018-11-04T13:13:22.381Z,11.58
2018-11-04T13:14:32.354Z,11.6
2018-11-04T13:15:42.053Z,11.55
2018-11-04T13:16:51.215Z,11.58
2018-11-04T13:18:01.175Z,11.43
2018-11-04T13:19:10.875Z,11.45
2018-11-04T13:20:20.584Z,11.52
2018-11-04T13:21:30.210Z,11.43
2018-11-04T13:22:40.182Z,11.43
2018-11-04T13:23:50.165Z,11.44
2018-11-04T13:25:00.141Z,11.49
2018-11-04T13:26:09.881Z,11.44
2018-11-04T13:27:19.595Z,11.43
2018-11-04T13:28:29.056Z,11.51
2018-11-04T13:29:39.011Z,11.48
2018-11-04T13:30:48.206Z,11.48
2018-11-04T13:31:58.168Z,11.49
2018-11-04T13:33:08.120Z,11.43
2018-11-04T13:34:17.843Z,11.48
2018-11-04T13:35:27.284Z,11.45
2018-11-04T13:36:36.720Z,11.44
2018-11-04T13:37:46.682Z,11.4
2018-11-04T13:38:56.380Z,11.4
2018-11-04T13:40:06.358Z,11.4
2018-11-04T13:41:15.801Z,11.3
2018-11-04T13:42:25.250Z,11.27
2018-11-04T13:43:34.947Z,11.31
2018-11-04T13:44:44.397Z,11.37
2018-11-04T13:45:54.098Z,11.23
2018-11-04T13:47:04.067Z,11.34
2018-11-04T13:48:13.753Z,11.31
2018-11-04T13:49:23.489Z,11.43
2018-11-04T13:50:33.289Z,11.4
2018-11-04T13:51:42.986Z,11.43
2018-11-04T13:52:52.688Z,11.34
2018-11-04T13:54:02.646Z,11.4
2018-11-04T13:55:12.603Z,11.38
2018-11-04T13:56:22.048Z,11.38
2018-11-04T13:57:31.488Z,11.34
2018-11-04T13:58:40.916Z,11.38
2018-11-04T13:59:50.857Z,11.4
2018-11-04T14:01:00.281Z,11.37
2018-11-04T14:02:10.216Z,11.31
2018-11-04T14:03:20.179Z,11.41
2018-11-04T14:04:29.888Z,11.22
2018-11-04T14:05:39.594Z,11.31
2018-11-04T14:06:49.545Z,11.31
2018-11-04T14:07:58.998Z,11.25
2018-11-04T14:09:08.434Z,11.22
2018-11-04T14:10:18.159Z,11.26
2018-11-04T14:11:27.590Z,11.26
2018-11-04T14:12:37.097Z,11.3
2018-11-04T14:13:47.271Z,11.25
2018-11-04T14:14:57.223Z,11.25
2018-11-04T14:16:07.185Z,11.16
2018-11-04T14:17:16.878Z,11.22
2018-11-04T14:18:26.840Z,11.27
2018-11-04T14:19:36.555Z,11.26
2018-11-04T14:20:46.548Z,11.27
2018-11-04T14:21:56.511Z,11.27
2018-11-04T14:23:05.956Z,11.23
2018-11-04T14:24:15.910Z,11.23
2018-11-04T14:25:25.856Z,11.26
2018-11-04T14:26:35.589Z,11.33
2018-11-04T14:27:45.312Z,11.31
2018-11-04T14:28:55.286Z,11.3
2018-11-04T14:30:04.985Z,11.22
2018-11-04T14:31:14.970Z,11.2
2018-11-04T14:32:24.981Z,11.23
2018-11-04T14:33:34.685Z,11.26
2018-11-04T14:34:44.656Z,11.19
2018-11-04T14:35:54.614Z,11.2
2018-11-04T14:37:04.339Z,11.3
2018-11-04T14:38:14.303Z,11.18
2018-11-04T14:39:24.019Z,11.16
2018-11-04T14:40:33.712Z,11.19
2018-11-04T14:41:43.673Z,11.16
2018-11-04T14:42:53.372Z,11.16
2018-11-04T14:44:03.083Z,11.2
2018-11-04T14:45:13.053Z,11.2
2018-11-04T14:46:22.480Z,11.2
2018-11-04T14:47:31.950Z,11.22
2018-11-04T14:48:41.409Z,11.22
2018-11-04T14:49:50.846Z,11.27
2018-11-04T14:51:00.297Z,11.25
2018-11-04T14:52:10.009Z,11.23
2018-11-04T14:53:19.489Z,11.25
2018-11-04T14:54:29.426Z,11.15
2018-11-04T14:55:39.146Z,11.19
2018-11-04T14:56:49.103Z,11.27
2018-11-04T14:57:59.060Z,11.27
2018-11-04T14:59:09.029Z,11.25
2018-11-04T15:00:18.970Z,11.22
2018-11-04T15:01:28.792Z,11.25
2018-11-04T15:02:38.726Z,11.3
2018-11-04T15:03:48.686Z,11.3
2018-11-04T15:04:58.648Z,11.25
2018-11-04T15:06:08.342Z,11.22
2018-11-04T15:07:18.498Z,11.22
2018-11-04T15:08:28.620Z,11.22
2018-11-04T15:09:38.583Z,11.25
2018-11-04T15:10:48.279Z,11.27
2018-11-04T15:11:58.343Z,11.16
2018-11-04T15:13:07.781Z,11.16
2018-11-04T15:14:17.214Z,11.1
2018-11-04T15:15:27.222Z,11.15
2018-11-04T15:16:37.168Z,11.16
2018-11-04T15:17:46.855Z,11.1